Terminal Aerodrome Forecast
Issued by NWS Wilmington, OH

Current Version | Previous Version | Text Only | Print | Product List | Glossary On
Versions: 1 2 3 4 5 6 7 8 9 10 11 12 13 14 15 16 17 18 19 20 21
000
FTUS41 KILN 230351 AAD
TAFDAY
TAF AMD
KDAY 230351Z 2304/2324 24012G22KT P6SM VCSH OVC050
     FM230500 22012G20KT P6SM SCT080
     FM230800 22012G22KT P6SM VCSH BKN050
     FM231100 22016G28KT P6SM VCSH OVC022
     FM231800 25018G28KT P6SM VCSH OVC022=

USA.gov is the U.S. government's official web portal to all federal, state and local government web resources and services.